Time,TemperatureF,DewpointF,PressureIn,WindDirection,WindDirectionDegrees,WindSpeedMPH,WindSpeedGustMPH,Humidity,HourlyPrecipIn,Conditions,Clouds,dailyrainin,SoftwareType,DateUTC
2013-10-21 01:52:00,54.0,42.0,-100.00,NNW,340,9.0,11.0,63,-99.99,,,-99.99,,2013-10-21 05:52:00,
2013-10-21 02:22:00,54.0,42.0,-100.00,NNW,330,7.0,9.0,61,-99.99,,,-99.99,,2013-10-21 06:22:00,
2013-10-21 02:52:00,55.0,42.0,-100.00,NNW,330,7.0,9.0,62,-99.99,,,-99.99,,2013-10-21 06:52:00,
2013-10-21 03:52:00,54.0,42.0,-100.00,NNW,340,4.0,7.0,63,-99.99,,,-99.99,,2013-10-21 07:52:00,
2013-10-21 04:21:00,54.0,42.0,-100.00,NW,310,2.0,4.0,63,-99.99,,,-99.99,,2013-10-21 08:21:00,
2013-10-21 05:22:00,56.0,45.0,-100.00,West,280,7.0,11.0,66,-99.99,,,-99.99,,2013-10-21 09:22:00,
2013-10-21 08:22:00,56.0,44.0,-100.00,West,280,11.0,16.0,62,-99.99,,,-99.99,,2013-10-21 12:22:00,
2013-10-21 08:52:00,57.0,43.0,-100.00,West,270,13.0,16.0,60,-99.99,,,-99.99,,2013-10-21 12:52:00,
2013-10-21 09:22:00,58.0,44.0,-100.00,West,270,11.0,13.0,60,-99.99,,,-99.99,,2013-10-21 13:22:00,
2013-10-21 09:52:00,58.0,45.0,-100.00,West,270,11.0,13.0,62,-99.99,,,-99.99,,2013-10-21 13:52:00,
2013-10-21 12:23:00,62.0,48.0,-100.00,West,270,11.0,13.0,59,-99.99,,,-99.99,,2013-10-21 16:23:00,
2013-10-21 13:21:00,61.0,46.0,-100.00,WSW,250,11.0,16.0,58,-99.99,,,-99.99,,2013-10-21 17:21:00,
2013-10-21 16:52:00,62.0,43.0,-100.00,WSW,250,7.0,11.0,49,-99.99,,,-99.99,,2013-10-21 20:52:00,
2013-10-21 17:22:00,63.0,44.0,-100.00,SW,230,4.0,7.0,49,-99.99,,,-99.99,,2013-10-21 21:22:00,
2013-10-21 17:54:00,62.0,46.0,-100.00,SSW,210,13.0,18.0,54,-99.99,,,-99.99,,2013-10-21 21:54:00,
2013-10-21 18:23:00,62.0,47.0,-100.00,SSW,210,18.0,20.0,59,-99.99,,,-99.99,,2013-10-21 22:23:00,
2013-10-21 18:53:00,61.0,47.0,-100.00,SSW,210,18.0,22.0,61,-99.99,,,-99.99,,2013-10-21 22:53:00,
2013-10-21 21:21:00,61.0,49.0,-100.00,SSW,210,16.0,22.0,66,-99.99,,,-99.99,,2013-10-22 01:21:00,
2013-10-21 22:22:00,61.0,48.0,-100.00,SSW,210,16.0,20.0,63,-99.99,,,-99.99,,2013-10-22 02:22:00,
2013-10-21 23:22:00,60.0,50.0,-100.00,SSW,210,18.0,22.0,68,-99.99,,,-99.99,,2013-10-22 03:22:00,
2013-10-21 23:55:00,60.0,50.0,-100.00,SSW,210,18.0,22.0,69,-99.99,,,-99.99,,2013-10-22 03:55:00,